Flight Track Log - Related Links

Times and Time Zones

All times are in EDT time to prevent confusion due to time zone crossing. See the CTL312 flight status page for this flight to view local times or setup timezone preferences in your user account.

Time Position Orientation Groundspeed Altitude Reporting Facility
EDT Latitude Longitude Course Direction KTS MPH feet Rate Location/Type
Tue 06:43:01 PM 41.5317 -81.6733 299° West 125 144 1,000  Level Cleveland Center
Tue 06:44:20 PM 41.5581 -81.7375 299° West 167 192 2,200 904 Climbing Cleveland Center
Tue 06:45:27 PM 41.5742 -81.7989 289° West 162 186 3,200 984 Climbing Cleveland Center
Tue 06:46:22 PM 41.5881 -81.8492 290° West 157 181 4,200 991 Climbing Cleveland Center
Tue 06:47:22 PM 41.5669 -81.8764 224° Southwest 125 144 5,100 803 Climbing Cleveland Center
Tue 06:48:29 PM 41.5233 -81.8728 176° South 140 161 5,900 645 Climbing Cleveland Center
Tue 06:49:23 PM 41.4919 -81.8861 198° South 150 173 6,400 574 Climbing Cleveland Center
Tue 06:50:24 PM 41.4581 -81.9269 222° Southwest 159 183 7,000 545 Climbing Cleveland Center
Tue 06:51:24 PM 41.4283 -81.9678 226° Southwest 159 183 7,500 446 Climbing Cleveland Center
Tue 06:52:25 PM 41.3986 -82.0142 230° Southwest 159 183 7,900 281 Climbing Cleveland Center
Tue 06:53:32 PM 41.3625 -82.0606 224° Southwest 170 196 8,100 50 Climbing Cleveland Center
Tue 06:54:26 PM 41.3267 -82.1011 220° Southwest 180 207 8,000 -30 Descending Cleveland Center
Tue 06:56:51 PM 41.2456 -82.2078 225° Southwest 174 200 8,000  Level Indianapolis Center
Tue 06:57:53 PM 41.2108 -82.2558 226° Southwest 179 206 8,000  Level Indianapolis Center
Tue 06:58:56 PM 41.1753 -82.3003 223° Southwest 175 201 8,000  Level Indianapolis Center
Tue 06:59:58 PM 41.1403 -82.3453 224° Southwest 174 200 8,000  Level Indianapolis Center
Tue 07:01:00 PM 41.1047 -82.3925 225° Southwest 178 205 8,000  Level Indianapolis Center
Tue 07:02:01 PM 41.0706 -82.4394 226° Southwest 177 204 8,000  Level Indianapolis Center
Tue 07:03:03 PM 41.0294 -82.4925 224° Southwest 176 203 8,000  Level Indianapolis Center
Tue 07:04:05 PM 40.9961 -82.5406 227° Southwest 176 203 8,000  Level Indianapolis Center
Tue 07:05:07 PM 40.9608 -82.5858 224° Southwest 175 201 8,000  Level Indianapolis Center
Tue 07:06:09 PM 40.9261 -82.6325 225° Southwest 176 203 8,000 -48 Level Indianapolis Center
Tue 07:07:11 PM 40.8900 -82.6761 222° Southwest 175 201 7,900  Descending Indianapolis Center
Tue 07:08:13 PM 40.8561 -82.7231 226° Southwest 175 201 8,000 48 Climbing Indianapolis Center
Tue 07:09:15 PM 40.8225 -82.7703 227° Southwest 175 201 8,000  Level Indianapolis Center
Tue 07:10:17 PM 40.7864 -82.8156 224° Southwest 177 204 8,000  Level Indianapolis Center
Tue 07:11:19 PM 40.7458 -82.8694 225° Southwest 176 203 8,000  Level Indianapolis Center
Tue 07:12:21 PM 40.7097 -82.9144 223° Southwest 177 204 8,000  Level Indianapolis Center
Tue 07:13:23 PM 40.6744 -82.9600 224° Southwest 177 204 8,000  Level Indianapolis Center
Tue 07:14:25 PM 40.6394 -83.0072 226° Southwest 178 205 8,000 -48 Level Indianapolis Center
Tue 07:15:27 PM 40.6047 -83.0547 226° Southwest 179 206 7,900  Descending Indianapolis Center
Tue 07:16:29 PM 40.5703 -83.1011 226° Southwest 176 203 8,000 49 Climbing Indianapolis Center
Tue 07:17:30 PM 40.5356 -83.1497 227° Southwest 180 207 8,000  Level Indianapolis Center
Tue 07:18:32 PM 40.4975 -83.2011 226° Southwest 176 203 8,000  Level Indianapolis Center
Tue 07:19:34 PM 40.4644 -83.2497 228° Southwest 178 205 8,000  Level Indianapolis Center
Tue 07:20:36 PM 40.4286 -83.2967 225° Southwest 180 207 8,000  Level Indianapolis Center
Tue 07:21:30 PM 40.3914 -83.3408 222° Southwest 180 207 8,000  Level Indianapolis Center
Tue 07:22:31 PM 40.3547 -83.3856 223° Southwest 177 204 8,000  Level Indianapolis Center
Tue 07:23:32 PM 40.3181 -83.4303 223° Southwest 179 206 8,000  Level Indianapolis Center
Tue 07:24:33 PM 40.2792 -83.4775 223° Southwest 180 207 8,000  Level Indianapolis Center
Tue 07:25:33 PM 40.2403 -83.5219 221° Southwest 180 207 8,000  Level Indianapolis Center
Tue 07:26:35 PM 40.2036 -83.5639 221° Southwest 178 205 8,000 -98 Level Indianapolis Center
Tue 07:27:35 PM 40.1611 -83.6022 215° Southwest 188 216 7,800  Descending Indianapolis Center
Tue 07:28:36 PM 40.1267 -83.6444 223° Southwest 174 200 8,000 158 Climbing Indianapolis Center
Tue 07:28:51 PM 40.1200 -83.6514 219° Southwest 180 207 8,000  Level Indianapolis Center
Tue 07:29:37 PM 40.0897 -83.6889 223° Southwest 173 199 8,000  Level Indianapolis Center
Tue 07:29:52 PM 40.0836 -83.6953 219° Southwest 178 205 8,000  Level Indianapolis Center
Tue 07:30:38 PM 40.0508 -83.7331 221° Southwest 177 204 8,000  Level Indianapolis Center
Tue 07:30:54 PM 40.0475 -83.7389 233° Southwest 177 204 8,000  Level Indianapolis Center
Tue 07:31:39 PM 40.0161 -83.7778 224° Southwest 178 205 8,000  Level Indianapolis Center
Tue 07:31:56 PM 40.0056 -83.7906 223° Southwest 177 204 8,000  Level Indianapolis Center
Tue 07:32:39 PM 39.9794 -83.8219 223° Southwest 176 203 8,000  Level Indianapolis Center
Tue 07:32:58 PM 39.9689 -83.8336 220° Southwest 177 204 8,000  Level Indianapolis Center
Tue 07:33:40 PM 39.9447 -83.8639 224° Southwest 177 204 8,000  Level Indianapolis Center
Tue 07:34:00 PM 39.9336 -83.8781 224° Southwest 176 203 8,000  Level Indianapolis Center
Tue 07:34:41 PM 39.9078 -83.9081 222° Southwest 176 203 8,000  Level Indianapolis Center
Tue 07:35:02 PM 39.8969 -83.9197 220° Southwest 175 201 8,000  Level Indianapolis Center
Tue 07:35:42 PM 39.8689 -83.9522 222° Southwest 174 200 8,000  Level Indianapolis Center
Tue 07:36:04 PM 39.8600 -83.9625 222° Southwest 176 203 8,000  Level Indianapolis Center
Tue 07:36:43 PM 39.8319 -83.9964 223° Southwest 177 204 8,000  Level Indianapolis Center
Tue 07:37:06 PM 39.8233 -84.0056 219° Southwest 177 204 8,000  Level Indianapolis Center
Tue 07:37:37 PM 39.7997 -84.0356 224° Southwest 177 204 8,000  Level Indianapolis Center
Tue 07:38:08 PM 39.7869 -84.0497 220° Southwest 177 204 8,000 -82 Level Indianapolis Center
Tue 07:38:50 PM 39.7558 -84.0869 223° Southwest 179 206 7,900 -197 Descending Indianapolis Center
Tue 07:39:09 PM 39.7436 -84.1017 223° Southwest 179 206 7,800 -519 Descending Indianapolis Center
Tue 07:40:11 PM 39.7031 -84.1472 221° Southwest 188 216 7,200 -629 Descending Indianapolis Center
Tue 07:41:13 PM 39.6608 -84.1950 221° Southwest 197 227 6,500 -581 Descending Indianapolis Center
Tue 07:42:15 PM 39.6217 -84.2419 223° Southwest 194 223 6,000 -581 Descending Indianapolis Center
Tue 07:43:17 PM 39.5822 -84.2858 221° Southwest 189 217 5,300 -683 Descending Indianapolis Center
Tue 07:44:18 PM 39.5436 -84.3278 220° Southwest 184 212 4,600 -732 Descending Indianapolis Center
Tue 07:45:20 PM 39.5025 -84.3656 215° Southwest 180 207 3,800 -677 Descending Indianapolis Center
Tue 07:46:22 PM 39.4561 -84.4072 215° Southwest 180 207 3,200 -581 Descending Indianapolis Center
Tue 07:48:00 PM 39.3919 -84.4581 218° Southwest  Level FlightAware Approximate
Tue 07:55:00 PM 39.3500 -84.5167 229° Southwest  Level FlightAware Approximate
Tue 07:56:00 PM 39.3638 -84.5219 229° Southwest  Level Estimated
Tue 07:57:00 PM 39.3638 -84.5219 229° Southwest  Level Estimated
Tue 07:58:00 PM 39.3638 -84.5219 229° Southwest  Level Estimated

Login

Don't have an account? Register now (free) for customized features, flight alerts, and more!